DAUU/OGX METAR and TAF weather

Enter ICAO airport designator
Station Type Date Time Source
DAUU METAR 2019/05/25 15:00 UTC NOAA

DAUU 251500Z 29019KT 6000 SCT046 SCT100 25/11 Q1008


Station Type Date Time Source
DAUU Decoded METAR 2019/05/25 15:00 UTC NOAA

Ouargla, Algeria (DAUU) 31-55N 005-24E 141M
May 25, 2019 - 11:00 AM EDT / 2019.05.25 1500 UTC
Wind: from the WNW (290 degrees) at 22 MPH (19 KT):0
Visibility: 3 mile(s):0
Sky conditions: partly cloudy
Temperature: 77 F (25 C)
Dew Point: 51 F (11 C)
Relative Humidity: 41%
Pressure (altimeter): 29.77 in. Hg (1008 hPa)
ob: DAUU 251500Z 29019KT 6000 SCT046 SCT100 25/11 Q1008
cycle: 15

Station Type Date Time Source
DAUU TAF 2017/11/09 18:03 UTC NOAA

TAF DAUU 091700Z 0918/1009 34012KT 9999 FEW040 SCT100 PROB40
TEMPO 0918/0924 34015G25KT 5000 -TSRA FEW036CB

Example: see airport list